Terminal Aerodrome Forecast
Issued by NWS Spokane, WA

Home | Current Version | Previous Version | Text Only | Print | Product List | Glossary On
Versions: 1 2 3 4 5 6 7 8 9 10 11 12 13 14 15 16 17 18 19 20 21 22 23 24 25 26
000
FTUS46 KOTX 050520
TAFLWS
TAF
KLWS 050520Z 0506/0606 14004KT P6SM SCT200
     FM051600 08005KT P6SM BKN200
     FM052100 35005KT P6SM BKN200
     FM060200 14004KT P6SM SCT200=

USA.gov is the U.S. government's official web portal to all federal, state and local government web resources and services.